Latest Weather Observations for Gold Coast Seaway

IDQ60801

Issued at 5:32 am EST Monday 24 April 2017 (issued every 30 minutes, with the page automatically refreshed every 10 minutes)

About weather observations | Map of weather stations | Latest weather observations for QLD | Other Formats
Station Details ID: 040764 Name: GOLD COAST SEAWAY Lat: -27.94 Lon: 153.43 Height: 2.98 m
Data from the previous 72 hours. | See also: Recent months at Gold Coast Seaway
Date/Time
EST
Temp
°C
App
Temp
°C
Dew
Point
°C
Rel
Hum
%
Delta-T
°C
Wind Press
QNH
hPa
Press
MSL
hPa
Rain since
9am
mm
Dir  Spd
km/h
Gust
km/h
Spd
kts
Gust
kts
24/05:30am 16.8 16.9 16.5 98 0.2 SW 11 13 6 7 1020.1 1020.1 0.0
24/05:00am 17.0 17.2 16.7 98 0.2 SW 11 15 6 8 1020.0 1020.0 0.0
24/04:30am 16.8 16.9 16.5 98 0.2 SW 11 15 6 8 1020.1 1020.1 0.0
24/04:00am 17.1 17.7 16.9 99 0.1 SW 9 13 5 7 1019.9 1019.9 0.0
24/03:30am 17.0 17.2 16.8 99 0.1 SW 11 15 6 8 1019.9 1019.9 0.0
24/03:00am 17.2 17.5 17.0 99 0.1 SW 11 13 6 7 1020.2 1020.2 0.0
24/02:30am 17.2 17.5 16.9 98 0.2 SW 11 13 6 7 1020.4 1020.4 0.0
24/02:00am 17.4 17.3 16.9 97 0.3 SW 13 15 7 8 1020.6 1020.6 0.0
24/01:30am 17.4 17.1 16.4 94 0.6 SW 13 15 7 8 1020.9 1020.9 0.0
24/01:00am 17.7 17.8 16.4 92 0.8 SW 11 15 6 8 1021.1 1021.1 0.0
24/12:30am 18.0 18.5 16.5 91 0.9 SW 9 13 5 7 1021.3 1021.3 0.0
24/12:00am 18.0 18.0 16.3 90 1.0 SSW 11 15 6 8 1021.4 1021.4 0.0
 
Date/Time
EST
Temp
°C
App
Temp
°C
Dew
Point
°C
Rel
Hum
%
Delta-T
°C
Wind Press
QNH
hPa
Press
MSL
hPa
Rain since
9am
mm
Dir  Spd
km/h
Gust
km/h
Spd
kts
Gust
kts
23/11:30pm 18.4 18.9 16.6 89 1.1 SW 9 13 5 7 1021.7 1021.7 0.0
23/11:00pm 18.5 18.9 16.3 87 1.3 SSW 9 13 5 7 1021.8 1021.8 0.0
23/10:30pm 18.6 18.2 16.2 86 1.4 SSW 13 15 7 8 1022.0 1022.0 0.0
23/10:00pm 18.6 18.6 16.2 86 1.4 SSW 11 13 6 7 1022.2 1022.2 0.0
23/09:30pm 19.0 19.4 16.2 84 1.7 SSW 9 11 5 6 1022.2 1022.2 0.0
23/09:00pm 19.3 19.3 16.2 82 1.8 SSW 11 15 6 8 1022.2 1022.2 0.0
23/08:30pm 19.8 19.4 16.3 80 2.1 SSW 13 19 7 10 1022.1 1022.1 0.0
23/08:00pm 20.6 20.7 16.4 77 2.5 SSW 11 13 6 7 1021.9 1021.9 0.0
23/07:30pm 21.4 21.1 17.4 78 2.5 SE 15 19 8 10 1021.7 1021.7 0.0
23/07:00pm 21.3 20.1 17.1 77 2.6 SE 19 24 10 13 1021.5 1021.5 0.0
23/06:30pm 21.4 20.9 17.8 80 2.2 ESE 17 20 9 11 1021.3 1021.3 0.0
23/06:00pm 21.1 20.4 17.3 79 2.3 E 17 22 9 12 1021.1 1021.1 0.0
23/05:30pm 21.1 19.0 16.3 74 2.9 SE 22 26 12 14 1020.8 1020.8 0.0
23/05:00pm 21.1 19.1 15.6 71 3.3 SE 20 26 11 14 1020.8 1020.8 0.0
23/04:30pm 22.1 20.1 16.4 70 3.5 SE 22 30 12 16 1020.7 1020.7 0.0
23/04:00pm 22.6 19.1 16.4 68 3.8 SE 30 35 16 19 1020.2 1020.2 0.0
23/03:30pm 23.1 19.5 17.3 70 3.6 SE 32 35 17 19 1020.1 1020.1 0.0
23/03:00pm 24.2 21.9 17.7 67 4.0 SE 26 32 14 17 1020.3 1020.3 0.0
23/02:30pm 23.8 21.5 17.5 68 3.9 SE 26 30 14 16 1020.4 1020.4 0.0
23/02:00pm 23.2 20.4 16.3 65 4.2 SE 26 32 14 17 1020.5 1020.5 0.0
23/01:30pm 24.8 21.7 16.5 60 5.1 SE 28 30 15 16 1020.7 1020.7 0.0
23/01:00pm 25.4 22.9 17.1 60 5.1 SE 26 32 14 17 1020.8 1020.8 0.0
23/12:30pm 25.2 22.4 16.4 58 5.4 SE 26 30 14 16 1021.1 1021.1 0.0
23/12:00pm 24.7 21.7 16.7 61 4.9 SE 28 32 15 17 1021.6 1021.6 0.0
23/11:30am 24.6 21.7 17.1 63 4.6 SE 28 33 15 18 1021.8 1021.8 0.0
23/11:00am 24.2 21.5 16.5 62 4.7 SE 26 32 14 17 1022.3 1022.3 0.0
23/10:30am 24.2 21.1 16.5 62 4.7 SSE 28 33 15 18 1022.8 1022.8 0.0
23/10:00am 24.0 20.9 16.5 63 4.6 SSE 28 33 15 18 1023.0 1023.0 0.0
23/09:30am 23.5 20.5 15.8 62 4.6 SSE 26 32 14 17 1023.3 1023.3 0.0
23/09:00am 22.9 20.0 16.0 65 4.2 SSE 26 33 14 18 1023.2 1023.2 0.2
23/08:30am 22.0 20.5 16.7 72 3.2 SSE 20 28 11 15 1023.2 1023.2 0.2
23/08:00am 20.2 19.5 15.4 74 2.8 S 13 17 7 9 1023.1 1023.1 0.2
23/07:30am 18.1 17.9 14.8 81 1.9 SSW 9 11 5 6 1022.9 1022.9 0.2
23/07:00am 16.8 16.5 14.3 85 1.4 SSW 9 11 5 6 1022.7 1022.7 0.2
23/06:30am 16.4 16.0 14.1 86 1.3 SSW 9 13 5 7 1022.3 1022.3 0.2
23/06:00am 16.4 16.0 14.2 87 1.2 SSW 9 11 5 6 1022.2 1022.2 0.2
23/05:30am 16.4 15.9 13.9 85 1.4 SSW 9 11 5 6 1021.9 1021.9 0.2
23/05:00am 16.7 16.6 13.8 83 1.6 SW 7 11 4 6 1021.7 1021.7 0.2
23/04:30am 16.9 16.8 14.0 83 1.6 SW 7 11 4 6 1021.6 1021.6 0.2
23/04:00am 17.1 16.3 14.0 82 1.8 SW 11 13 6 7 1021.4 1021.4 0.2
23/03:30am 17.2 16.4 13.9 81 1.9 SSW 11 15 6 8 1021.3 1021.3 0.2
23/03:00am 17.3 16.6 14.2 82 1.8 SSW 11 15 6 8 1021.4 1021.4 0.2
23/02:30am 16.6 15.7 13.7 83 1.6 SSW 11 15 6 8 1021.6 1021.6 0.2
23/02:00am 16.8 15.9 13.7 82 1.7 SW 11 15 6 8 1021.9 1021.9 0.2
23/01:30am 16.6 15.2 13.5 82 1.7 SW 13 15 7 8 1022.3 1022.3 0.2
23/01:00am 16.8 15.4 13.5 81 1.8 SW 13 17 7 9 1022.5 1022.5 0.2
23/12:30am 16.9 15.6 13.6 81 1.9 SW 13 15 7 8 1022.7 1022.7 0.2
23/12:00am 17.2 16.3 13.7 80 2.0 SW 11 15 6 8 1023.2 1023.2 0.2
 
Date/Time
EST
Temp
°C
App
Temp
°C
Dew
Point
°C
Rel
Hum
%
Delta-T
°C
Wind Press
QNH
hPa
Press
MSL
hPa
Rain since
9am
mm
Dir  Spd
km/h
Gust
km/h
Spd
kts
Gust
kts
22/11:30pm 17.3 16.0 13.6 79 2.1 SW 13 15 7 8 1023.5 1023.5 0.2
22/11:00pm 17.6 16.9 13.3 76 2.4 SW 9 13 5 7 1023.6 1023.6 0.2
22/10:30pm 17.7 17.0 13.2 75 2.5 SW 9 11 5 6 1023.7 1023.7 0.2
22/10:00pm 17.7 16.9 12.8 73 2.7 SSW 9 13 5 7 1023.8 1023.8 0.2
22/09:30pm 18.3 17.2 13.0 71 3.0 SSW 11 15 6 8 1024.1 1024.1 0.2
22/09:00pm 18.8 17.3 13.0 69 3.3 SSW 13 19 7 10 1024.1 1024.1 0.2
22/08:30pm 18.8 17.5 12.5 67 3.5 S 11 15 6 8 1023.9 1023.9 0.2
22/08:00pm 19.3 16.9 12.8 66 3.6 S 17 22 9 12 1023.9 1023.9 0.2
22/07:30pm 19.8 16.9 12.8 64 3.9 SSE 20 28 11 15 1023.6 1023.6 0.2
22/07:00pm 20.6 17.1 13.3 63 4.2 SSE 24 33 13 18 1023.5 1023.5 0.2
22/06:30pm 21.1 16.1 13.5 62 4.4 SE 32 37 17 20 1023.1 1023.1 0.2
22/06:00pm 21.1 15.6 11.7 55 5.2 SE 32 41 17 22 1022.8 1022.8 0.2
22/05:30pm 21.0 15.9 11.9 56 5.1 SE 30 35 16 19 1022.7 1022.7 0.2
22/05:00pm 21.4 17.0 14.1 63 4.2 SE 30 33 16 18 1022.7 1022.7 0.2
22/04:30pm 21.7 17.2 13.9 61 4.5 SE 30 35 16 19 1022.4 1022.4 0.2
22/04:00pm 22.0 17.9 13.9 60 4.7 SE 28 35 15 19 1022.3 1022.3 0.2
22/03:30pm 23.3 18.9 14.0 56 5.4 SE 30 33 16 18 1022.1 1022.1 0.2
22/03:00pm 22.7 17.8 13.7 56 5.2 SE 32 35 17 19 1022.0 1022.0 0.2
22/02:30pm 24.1 19.8 14.5 55 5.7 SE 30 37 16 20 1022.1 1022.1 0.2
22/02:00pm 24.0 20.6 18.2 70 3.6 SE 33 39 18 21 1022.2 1022.2 0.2
22/01:30pm 23.7 20.4 18.4 72 3.3 SE 33 41 18 22 1022.5 1022.5 0.2
22/01:00pm 24.5 21.5 18.7 70 3.7 SE 32 39 17 21 1022.6 1022.6 0.2
22/12:30pm 23.3 19.7 17.7 71 3.5 SE 33 43 18 23 1023.1 1023.1 0.2
22/12:00pm 24.3 21.2 18.5 70 3.7 SE 32 37 17 20 1023.6 1023.6 0.2
22/11:30am 23.0 19.4 17.2 70 3.6 SE 32 37 17 20 1024.1 1024.1 0.2
22/11:00am 23.5 20.1 18.2 72 3.3 SE 33 39 18 21 1024.5 1024.5 0.2
22/10:30am 23.6 20.6 18.7 74 3.1 SE 32 41 17 22 1024.7 1024.7 0.2
22/10:00am 23.8 20.1 19.1 75 3.0 SE 37 44 20 24 1024.8 1024.8 0.2
22/09:30am 23.6 20.1 18.7 74 3.1 SE 35 43 19 23 1024.8 1024.8 0.0
22/09:00am 21.9 20.1 19.5 86 1.5 SSE 28 35 15 19 1024.8 1024.8 16.8
22/08:30am 21.0 19.1 19.3 90 1.1 SSE 28 35 15 19 1024.9 1024.9 16.8
22/08:00am 20.7 18.7 19.2 91 0.9 SSE 28 33 15 18 1024.6 1024.6 16.8
22/07:30am 20.1 18.2 18.6 91 0.9 S 26 35 14 19 1024.3 1024.3 16.8
22/07:00am 19.6 19.1 17.9 90 1.0 S 17 28 9 15 1024.3 1024.3 16.8
22/06:30am 19.7 19.9 18.5 93 0.7 S 15 22 8 12 1023.9 1023.9 16.8
22/06:00am 21.1 17.8 18.3 84 1.7 SE 33 44 18 24 1023.4 1023.4 16.8
22/05:30am 21.2 17.3 18.8 86 1.5 SE 37 41 20 22 1023.0 1023.0 16.8
22/05:00am 21.3 17.9 19.0 87 1.4 SE 35 43 19 23 1022.8 1022.8 16.8
22/04:30am 21.0 17.9 18.9 88 1.3 SE 33 41 18 22 1022.5 1022.5 16.8
22/04:00am 20.9 17.7 18.5 86 1.5 SE 33 41 18 22 1022.4 1022.4 16.8
22/03:30am 20.7 18.0 19.2 91 0.9 ESE 32 37 17 20 1022.5 1022.5 16.8
22/03:00am 19.2 17.2 19.2 100 0.0 SE 28 37 15 20 1022.5 1022.5 16.8
22/02:30am 18.5 17.7 18.5 100 0.0 SSE 20 30 11 16 1022.7 1022.7 16.8
22/02:00am 18.1 18.1 18.1 100 0.0 SW 15 20 8 11 1022.9 1022.9 16.8
22/01:30am 18.2 17.5 18.2 100 0.0 SSE 19 33 10 18 1023.3 1023.3 16.4
22/01:00am 18.6 18.1 18.6 100 0.0 SSE 19 26 10 14 1023.6 1023.6 14.0
22/12:30am 19.2 16.8 19.2 100 0.0 E 30 37 16 20 1023.8 1023.8 6.4
22/12:00am 18.8 19.5 18.8 100 0.0 SE 13 26 7 14 1024.1 1024.1 5.8
 
Date/Time
EST
Temp
°C
App
Temp
°C
Dew
Point
°C
Rel
Hum
%
Delta-T
°C
Wind Press
QNH
hPa
Press
MSL
hPa
Rain since
9am
mm
Dir  Spd
km/h
Gust
km/h
Spd
kts
Gust
kts
21/11:30pm 17.8 17.2 17.6 99 0.1 SSW 17 20 9 11 1023.9 1023.9 3.0
21/11:00pm 17.7 18.2 17.5 99 0.1 SW 11 15 6 8 1024.0 1024.0 3.0
21/10:30pm 17.9 18.1 17.7 99 0.1 SSW 13 19 7 10 1024.3 1024.3 3.0
21/10:00pm 18.0 17.5 17.8 99 0.1 S 17 26 9 14 1024.5 1024.5 3.0
21/09:30pm 18.0 18.2 17.7 98 0.2 SSW 13 19 7 10 1024.7 1024.7 3.0
21/09:00pm 18.3 15.9 17.3 94 0.6 S 26 33 14 18 1024.9 1024.9 2.4
21/08:30pm 20.7 19.0 17.3 81 2.1 S 22 32 12 17 1024.8 1024.8 0.2
21/08:00pm 21.7 19.3 17.3 76 2.7 SE 26 33 14 18 1024.4 1024.4 0.2
21/07:30pm 21.5 18.5 16.9 75 2.8 SE 28 35 15 19 1024.3 1024.3 0.2
21/07:00pm 21.6 18.2 16.8 74 2.9 SE 30 37 16 20 1024.1 1024.1 0.2
21/06:30pm 21.6 18.4 17.2 76 2.7 SE 30 37 16 20 1024.1 1024.1 0.2
21/06:00pm 21.5 17.8 16.9 75 2.8 SE 32 39 17 21 1023.7 1023.7 0.2
21/05:30pm 21.5 17.7 16.7 74 2.9 SE 32 39 17 21 1023.6 1023.6 0.2
21/05:00pm 21.8 17.9 16.5 72 3.2 SE 32 37 17 20 1023.4 1023.4 0.2
21/04:30pm 22.1 17.7 15.7 67 3.8 SE 33 41 18 22 1023.4 1023.4 0.2
21/04:00pm 22.6 17.7 15.4 64 4.3 SE 35 41 19 22 1023.2 1023.2 0.2
21/03:30pm 22.7 18.6 16.5 68 3.8 SE 33 39 18 21 1023.1 1023.1 0.2
21/03:00pm 23.0 18.8 16.3 66 4.1 SE 33 41 18 22 1023.2 1023.2 0.2
21/02:30pm 23.8 20.2 17.1 66 4.1 SSE 32 39 17 21 1023.2 1023.2 0.2
21/02:00pm 23.3 19.5 16.6 66 4.1 SSE 32 37 17 20 1023.4 1023.4 0.2
21/01:30pm 24.3 20.7 17.1 64 4.5 SE 32 39 17 21 1023.5 1023.5 0.2
21/01:00pm 21.9 16.3 16.4 71 3.3 SE 41 50 22 27 1023.9 1023.9 0.2
21/12:30pm 22.8 18.8 17.7 73 3.2 SSE 35 43 19 23 1024.3 1024.3 0.2
21/12:00pm 24.0 20.7 17.0 65 4.3 SE 30 35 16 19 1024.6 1024.6 0.2
21/11:30am 23.9 21.9 17.4 67 4.0 SSE 24 30 13 16 1025.0 1025.0 0.2
21/11:00am 23.4 18.7 16.9 67 4.0 SE 37 50 20 27 1025.5 1025.5 0.2
21/10:30am 22.8 18.1 17.7 73 3.2 ESE 39 50 21 27 1025.7 1025.7 0.0
21/10:19am 22.5 18.6 17.8 75 2.9 SE 35 48 19 26 1025.7 1025.7 0.0
21/10:00am 22.6 18.9 17.5 73 3.1 SSE 33 48 18 26 1025.7 1025.7 0.0
21/09:30am 22.2 19.0 17.3 74 3.0 SSE 30 39 16 21 1025.8 1025.8 0.0
21/09:00am 22.9 19.4 17.4 71 3.4 SSE 32 37 17 20 1025.7 1025.7 1.6
21/08:30am 22.2 18.5 16.9 72 3.2 SSE 32 39 17 21 1025.7 1025.7 1.6
21/08:00am 21.4 17.0 16.6 74 2.9 SSE 35 39 19 21 1025.5 1025.5 1.6
21/07:30am 20.2 16.7 16.6 80 2.2 SSE 30 37 16 20 1025.3 1025.3 1.6
21/07:00am 19.4 15.8 16.2 82 1.9 SSE 30 37 16 20 1025.0 1025.0 1.6
21/06:30am 19.0 15.5 15.5 80 2.1 S 28 35 15 19 1024.6 1024.6 1.6
21/06:00am 19.1 15.0 16.0 82 1.8 SSE 32 39 17 21 1024.2 1024.2 1.6

Other Formats:

Comma delimited format used in spreadsheet applications
http://www.bom.gov.au/fwo/IDQ60801/IDQ60801.94580.axf

JavaScript Object Notation format (JSON) in row-major order
http://www.bom.gov.au/fwo/IDQ60801/IDQ60801.94580.json